sensor_id;sensor_type;location;lat;lon;timestamp;P1;durP1;ratioP1;P2;durP2;ratioP2
74293;SDS011;64044;59.904;10.738;2023-09-19T00:02:02;8.40;;;3.80;;
74293;SDS011;64044;59.904;10.738;2023-09-19T00:04:32;8.25;;;3.92;;
74293;SDS011;64044;59.904;10.738;2023-09-19T00:06:58;14.40;;;3.88;;
74293;SDS011;64044;59.904;10.738;2023-09-19T00:09:24;6.30;;;3.28;;
74293;SDS011;64044;59.904;10.738;2023-09-19T00:11:53;7.15;;;4.07;;
74293;SDS011;64044;59.904;10.738;2023-09-19T00:14:19;9.27;;;3.97;;
74293;SDS011;64044;59.904;10.738;2023-09-19T00:16:44;8.30;;;4.03;;
74293;SDS011;64044;59.904;10.738;2023-09-19T00:19:14;10.95;;;3.72;;
74293;SDS011;64044;59.904;10.738;2023-09-19T00:21:41;8.20;;;3.58;;
74293;SDS011;64044;59.904;10.738;2023-09-19T00:24:06;6.63;;;3.30;;
74293;SDS011;64044;59.904;10.738;2023-09-19T00:26:34;11.80;;;3.92;;
74293;SDS011;64044;59.904;10.738;2023-09-19T00:29:00;9.63;;;3.40;;
74293;SDS011;64044;59.904;10.738;2023-09-19T00:31:29;13.82;;;4.20;;
74293;SDS011;64044;59.904;10.738;2023-09-19T00:33:55;12.60;;;3.85;;
74293;SDS011;64044;59.904;10.738;2023-09-19T00:36:25;9.63;;;4.60;;
74293;SDS011;64044;59.904;10.738;2023-09-19T00:38:50;13.27;;;4.05;;
74293;SDS011;64044;59.904;10.738;2023-09-19T00:41:16;10.05;;;3.53;;
74293;SDS011;64044;59.904;10.738;2023-09-19T00:43:42;17.15;;;4.45;;
74293;SDS011;64044;59.904;10.738;2023-09-19T00:46:08;10.02;;;3.75;;
74293;SDS011;64044;59.904;10.738;2023-09-19T00:48:37;12.40;;;3.78;;
74293;SDS011;64044;59.904;10.738;2023-09-19T00:51:08;10.60;;;3.90;;
74293;SDS011;64044;59.904;10.738;2023-09-19T00:53:36;14.73;;;4.30;;
74293;SDS011;64044;59.904;10.738;2023-09-19T00:56:03;10.70;;;4.07;;
74293;SDS011;64044;59.904;10.738;2023-09-19T00:58:33;15.18;;;3.85;;
74293;SDS011;64044;59.904;10.738;2023-09-19T01:01:00;7.70;;;4.03;;
74293;SDS011;64044;59.904;10.738;2023-09-19T01:03:28;7.22;;;3.28;;
74293;SDS011;64044;59.904;10.738;2023-09-19T01:05:54;11.65;;;4.13;;
74293;SDS011;64044;59.904;10.738;2023-09-19T01:08:19;7.32;;;3.58;;
74293;SDS011;64044;59.904;10.738;2023-09-19T01:10:52;9.88;;;3.50;;
74293;SDS011;64044;59.904;10.738;2023-09-19T01:15:59;6.40;;;3.20;;
74293;SDS011;64044;59.904;10.738;2023-09-19T01:18:48;10.88;;;3.72;;
74293;SDS011;64044;59.904;10.738;2023-09-19T01:21:44;7.80;;;3.38;;
74293;SDS011;64044;59.904;10.738;2023-09-19T01:30:32;12.70;;;3.78;;
74293;SDS011;64044;59.904;10.738;2023-09-19T01:33:05;10.00;;;3.38;;
74293;SDS011;64044;59.904;10.738;2023-09-19T01:35:32;11.18;;;3.75;;
74293;SDS011;64044;59.904;10.738;2023-09-19T01:37:59;9.60;;;3.47;;
74293;SDS011;64044;59.904;10.738;2023-09-19T01:40:25;6.63;;;3.33;;
74293;SDS011;64044;59.904;10.738;2023-09-19T01:48:41;9.38;;;3.20;;
74293;SDS011;64044;59.904;10.738;2023-09-19T01:51:29;9.48;;;3.33;;
74293;SDS011;64044;59.904;10.738;2023-09-19T01:54:03;12.75;;;4.10;;
74293;SDS011;64044;59.904;10.738;2023-09-19T01:59:13;10.63;;;4.15;;
74293;SDS011;64044;59.904;10.738;2023-09-19T02:01:41;17.98;;;4.57;;
74293;SDS011;64044;59.904;10.738;2023-09-19T02:04:09;25.55;;;5.68;;
74293;SDS011;64044;59.904;10.738;2023-09-19T02:06:35;36.88;;;6.90;;
74293;SDS011;64044;59.904;10.738;2023-09-19T02:09:07;23.02;;;5.55;;
74293;SDS011;64044;59.904;10.738;2023-09-19T02:11:33;21.92;;;4.60;;
74293;SDS011;64044;59.904;10.738;2023-09-19T02:14:00;25.90;;;4.90;;
74293;SDS011;64044;59.904;10.738;2023-09-19T02:16:27;12.02;;;2.95;;
74293;SDS011;64044;59.904;10.738;2023-09-19T02:18:53;9.07;;;3.30;;
74293;SDS011;64044;59.904;10.738;2023-09-19T02:21:19;11.10;;;3.42;;
74293;SDS011;64044;59.904;10.738;2023-09-19T02:23:46;18.38;;;4.00;;
74293;SDS011;64044;59.904;10.738;2023-09-19T02:26:13;10.85;;;3.95;;
74293;SDS011;64044;59.904;10.738;2023-09-19T02:28:39;13.35;;;4.10;;
74293;SDS011;64044;59.904;10.738;2023-09-19T02:31:05;11.05;;;3.60;;
74293;SDS011;64044;59.904;10.738;2023-09-19T02:33:30;12.25;;;3.83;;
74293;SDS011;64044;59.904;10.738;2023-09-19T02:36:00;8.65;;;3.80;;
74293;SDS011;64044;59.904;10.738;2023-09-19T02:38:28;16.08;;;5.45;;
74293;SDS011;64044;59.904;10.738;2023-09-19T02:40:54;11.43;;;3.92;;
74293;SDS011;64044;59.904;10.738;2023-09-19T02:43:20;9.85;;;3.88;;
74293;SDS011;64044;59.904;10.738;2023-09-19T02:45:47;10.23;;;3.70;;
74293;SDS011;64044;59.904;10.738;2023-09-19T02:48:15;7.63;;;3.45;;
74293;SDS011;64044;59.904;10.738;2023-09-19T02:50:41;10.38;;;4.05;;
74293;SDS011;64044;59.904;10.738;2023-09-19T02:53:08;8.32;;;4.05;;
74293;SDS011;64044;59.904;10.738;2023-09-19T02:55:35;10.70;;;4.20;;
74293;SDS011;64044;59.904;10.738;2023-09-19T02:58:03;13.52;;;4.40;;
74293;SDS011;64044;59.904;10.738;2023-09-19T03:00:30;7.35;;;3.45;;
74293;SDS011;64044;59.904;10.738;2023-09-19T03:02:56;7.00;;;3.55;;
74293;SDS011;64044;59.904;10.738;2023-09-19T03:05:22;5.55;;;3.22;;
74293;SDS011;64044;59.904;10.738;2023-09-19T03:07:49;9.02;;;4.28;;
74293;SDS011;64044;59.904;10.738;2023-09-19T03:10:18;6.57;;;3.53;;
74293;SDS011;64044;59.904;10.738;2023-09-19T03:12:46;8.63;;;4.00;;
74293;SDS011;64044;59.904;10.738;2023-09-19T03:15:12;7.93;;;4.07;;
74293;SDS011;64044;59.904;10.738;2023-09-19T03:17:42;7.75;;;3.70;;
74293;SDS011;64044;59.904;10.738;2023-09-19T03:20:15;8.07;;;3.38;;
74293;SDS011;64044;59.904;10.738;2023-09-19T03:22:44;9.05;;;3.50;;
74293;SDS011;64044;59.904;10.738;2023-09-19T03:25:11;8.15;;;3.65;;
74293;SDS011;64044;59.904;10.738;2023-09-19T03:27:40;7.15;;;3.47;;
74293;SDS011;64044;59.904;10.738;2023-09-19T03:30:06;8.60;;;3.83;;
74293;SDS011;64044;59.904;10.738;2023-09-19T03:32:36;11.05;;;3.90;;
74293;SDS011;64044;59.904;10.738;2023-09-19T03:35:02;6.32;;;3.10;;
74293;SDS011;64044;59.904;10.738;2023-09-19T03:37:30;6.30;;;3.55;;
74293;SDS011;64044;59.904;10.738;2023-09-19T03:39:57;5.80;;;3.33;;
74293;SDS011;64044;59.904;10.738;2023-09-19T03:42:23;7.32;;;3.15;;
74293;SDS011;64044;59.904;10.738;2023-09-19T03:44:51;7.57;;;3.72;;
74293;SDS011;64044;59.904;10.738;2023-09-19T03:47:17;12.35;;;3.70;;
74293;SDS011;64044;59.904;10.738;2023-09-19T03:49:44;6.75;;;3.88;;
74293;SDS011;64044;59.904;10.738;2023-09-19T03:52:09;7.43;;;3.53;;
74293;SDS011;64044;59.904;10.738;2023-09-19T03:54:35;8.98;;;3.33;;
74293;SDS011;64044;59.904;10.738;2023-09-19T03:57:01;7.47;;;3.00;;
74293;SDS011;64044;59.904;10.738;2023-09-19T03:59:28;6.32;;;3.35;;
74293;SDS011;64044;59.904;10.738;2023-09-19T04:01:54;5.00;;;2.72;;
74293;SDS011;64044;59.904;10.738;2023-09-19T04:04:22;4.57;;;3.15;;
74293;SDS011;64044;59.904;10.738;2023-09-19T04:06:50;7.05;;;3.10;;
74293;SDS011;64044;59.904;10.738;2023-09-19T04:09:16;5.18;;;2.88;;
74293;SDS011;64044;59.904;10.738;2023-09-19T04:11:41;5.32;;;3.30;;
74293;SDS011;64044;59.904;10.738;2023-09-19T04:14:07;3.97;;;3.10;;
74293;SDS011;64044;59.904;10.738;2023-09-19T04:16:33;6.68;;;3.67;;
74293;SDS011;64044;59.904;10.738;2023-09-19T04:18:59;5.50;;;3.25;;
74293;SDS011;64044;59.904;10.738;2023-09-19T04:21:24;4.80;;;3.33;;
74293;SDS011;64044;59.904;10.738;2023-09-19T04:23:51;5.25;;;3.30;;
74293;SDS011;64044;59.904;10.738;2023-09-19T04:26:17;4.63;;;3.33;;
74293;SDS011;64044;59.904;10.738;2023-09-19T04:28:42;6.32;;;3.50;;
74293;SDS011;64044;59.904;10.738;2023-09-19T04:31:09;4.72;;;3.72;;
74293;SDS011;64044;59.904;10.738;2023-09-19T04:33:36;4.68;;;3.28;;
74293;SDS011;64044;59.904;10.738;2023-09-19T04:36:02;5.28;;;3.40;;
74293;SDS011;64044;59.904;10.738;2023-09-19T04:38:30;3.17;;;2.88;;
74293;SDS011;64044;59.904;10.738;2023-09-19T04:40:57;4.68;;;2.85;;
74293;SDS011;64044;59.904;10.738;2023-09-19T04:43:24;4.78;;;3.15;;
74293;SDS011;64044;59.904;10.738;2023-09-19T04:45:50;3.97;;;2.53;;
74293;SDS011;64044;59.904;10.738;2023-09-19T04:48:16;3.38;;;2.58;;
74293;SDS011;64044;59.904;10.738;2023-09-19T04:50:42;4.32;;;2.63;;
74293;SDS011;64044;59.904;10.738;2023-09-19T04:53:09;3.78;;;2.97;;
74293;SDS011;64044;59.904;10.738;2023-09-19T04:55:34;4.05;;;2.80;;
74293;SDS011;64044;59.904;10.738;2023-09-19T04:58:01;3.30;;;2.40;;
74293;SDS011;64044;59.904;10.738;2023-09-19T05:00:27;2.80;;;2.50;;
74293;SDS011;64044;59.904;10.738;2023-09-19T05:02:55;3.00;;;2.50;;
74293;SDS011;64044;59.904;10.738;2023-09-19T05:05:22;3.75;;;2.45;;
74293;SDS011;64044;59.904;10.738;2023-09-19T05:07:49;3.47;;;2.55;;
74293;SDS011;64044;59.904;10.738;2023-09-19T05:10:16;2.90;;;2.17;;
74293;SDS011;64044;59.904;10.738;2023-09-19T05:12:43;3.10;;;2.20;;
74293;SDS011;64044;59.904;10.738;2023-09-19T05:15:11;2.95;;;2.05;;
74293;SDS011;64044;59.904;10.738;2023-09-19T05:17:39;2.92;;;2.10;;
74293;SDS011;64044;59.904;10.738;2023-09-19T05:20:05;2.05;;;1.55;;
74293;SDS011;64044;59.904;10.738;2023-09-19T05:23:01;2.05;;;1.77;;
74293;SDS011;64044;59.904;10.738;2023-09-19T05:25:37;1.80;;;1.50;;
74293;SDS011;64044;59.904;10.738;2023-09-19T05:28:05;1.85;;;1.65;;
74293;SDS011;64044;59.904;10.738;2023-09-19T05:30:32;2.15;;;1.65;;
74293;SDS011;64044;59.904;10.738;2023-09-19T05:33:01;2.28;;;1.90;;
74293;SDS011;64044;59.904;10.738;2023-09-19T05:35:27;5.63;;;1.90;;
74293;SDS011;64044;59.904;10.738;2023-09-19T05:37:53;1.80;;;1.67;;
74293;SDS011;64044;59.904;10.738;2023-09-19T05:40:21;2.75;;;1.80;;
74293;SDS011;64044;59.904;10.738;2023-09-19T05:42:47;3.03;;;1.65;;
74293;SDS011;64044;59.904;10.738;2023-09-19T05:45:13;1.92;;;1.65;;
74293;SDS011;64044;59.904;10.738;2023-09-19T05:47:42;2.95;;;1.77;;
74293;SDS011;64044;59.904;10.738;2023-09-19T05:50:11;2.60;;;1.67;;
74293;SDS011;64044;59.904;10.738;2023-09-19T05:52:36;2.28;;;1.85;;
74293;SDS011;64044;59.904;10.738;2023-09-19T05:55:05;3.17;;;1.83;;
74293;SDS011;64044;59.904;10.738;2023-09-19T05:57:35;4.70;;;1.90;;
74293;SDS011;64044;59.904;10.738;2023-09-19T06:00:04;4.90;;;2.42;;
74293;SDS011;64044;59.904;10.738;2023-09-19T06:02:36;3.17;;;2.22;;
74293;SDS011;64044;59.904;10.738;2023-09-19T06:05:03;8.35;;;2.13;;
74293;SDS011;64044;59.904;10.738;2023-09-19T06:07:35;2.72;;;1.75;;
74293;SDS011;64044;59.904;10.738;2023-09-19T06:10:04;3.97;;;1.98;;
74293;SDS011;64044;59.904;10.738;2023-09-19T06:12:32;8.80;;;2.30;;
74293;SDS011;64044;59.904;10.738;2023-09-19T06:15:02;3.43;;;2.23;;
74293;SDS011;64044;59.904;10.738;2023-09-19T06:17:33;3.25;;;2.00;;
74293;SDS011;64044;59.904;10.738;2023-09-19T06:20:03;3.50;;;2.00;;
74293;SDS011;64044;59.904;10.738;2023-09-19T06:22:35;6.43;;;2.45;;
74293;SDS011;64044;59.904;10.738;2023-09-19T06:25:01;8.30;;;2.17;;
74293;SDS011;64044;59.904;10.738;2023-09-19T06:27:27;9.32;;;2.20;;
74293;SDS011;64044;59.904;10.738;2023-09-19T06:29:54;5.72;;;1.88;;
74293;SDS011;64044;59.904;10.738;2023-09-19T06:32:26;5.53;;;2.08;;
74293;SDS011;64044;59.904;10.738;2023-09-19T06:34:52;5.43;;;1.92;;
74293;SDS011;64044;59.904;10.738;2023-09-19T06:37:20;5.68;;;1.85;;
74293;SDS011;64044;59.904;10.738;2023-09-19T06:39:47;5.05;;;1.70;;
74293;SDS011;64044;59.904;10.738;2023-09-19T06:42:15;5.93;;;1.95;;
74293;SDS011;64044;59.904;10.738;2023-09-19T06:44:42;4.50;;;1.60;;
74293;SDS011;64044;59.904;10.738;2023-09-19T06:47:08;6.75;;;2.20;;
74293;SDS011;64044;59.904;10.738;2023-09-19T06:49:35;7.05;;;2.08;;
74293;SDS011;64044;59.904;10.738;2023-09-19T06:52:01;4.07;;;1.40;;
74293;SDS011;64044;59.904;10.738;2023-09-19T06:54:28;4.85;;;1.77;;
74293;SDS011;64044;59.904;10.738;2023-09-19T06:56:56;5.40;;;1.88;;
74293;SDS011;64044;59.904;10.738;2023-09-19T06:59:27;6.65;;;1.70;;
74293;SDS011;64044;59.904;10.738;2023-09-19T07:01:52;4.60;;;1.10;;
74293;SDS011;64044;59.904;10.738;2023-09-19T07:04:18;4.93;;;1.30;;
74293;SDS011;64044;59.904;10.738;2023-09-19T07:06:48;5.43;;;1.60;;
74293;SDS011;64044;59.904;10.738;2023-09-19T07:09:15;3.13;;;1.50;;
74293;SDS011;64044;59.904;10.738;2023-09-19T07:11:41;5.82;;;1.83;;
74293;SDS011;64044;59.904;10.738;2023-09-19T07:14:07;4.38;;;1.50;;
74293;SDS011;64044;59.904;10.738;2023-09-19T07:16:37;7.97;;;1.50;;
74293;SDS011;64044;59.904;10.738;2023-09-19T07:19:04;6.88;;;1.83;;
74293;SDS011;64044;59.904;10.738;2023-09-19T07:21:30;4.13;;;1.30;;
74293;SDS011;64044;59.904;10.738;2023-09-19T07:23:59;14.50;;;3.03;;
74293;SDS011;64044;59.904;10.738;2023-09-19T07:26:26;5.45;;;1.50;;
74293;SDS011;64044;59.904;10.738;2023-09-19T07:28:53;8.73;;;1.50;;
74293;SDS011;64044;59.904;10.738;2023-09-19T07:31:19;5.50;;;1.45;;
74293;SDS011;64044;59.904;10.738;2023-09-19T07:33:45;7.20;;;1.48;;
74293;SDS011;64044;59.904;10.738;2023-09-19T07:36:11;8.15;;;1.52;;
74293;SDS011;64044;59.904;10.738;2023-09-19T07:38:38;8.73;;;1.60;;
74293;SDS011;64044;59.904;10.738;2023-09-19T07:41:05;7.15;;;1.42;;
74293;SDS011;64044;59.904;10.738;2023-09-19T07:43:33;5.63;;;1.25;;
74293;SDS011;64044;59.904;10.738;2023-09-19T07:46:06;7.05;;;1.48;;
74293;SDS011;64044;59.904;10.738;2023-09-19T07:48:34;6.45;;;1.70;;
74293;SDS011;64044;59.904;10.738;2023-09-19T07:51:01;11.48;;;2.00;;
74293;SDS011;64044;59.904;10.738;2023-09-19T07:53:32;9.27;;;2.25;;
74293;SDS011;64044;59.904;10.738;2023-09-19T07:56:06;4.65;;;1.30;;
74293;SDS011;64044;59.904;10.738;2023-09-19T07:58:33;10.95;;;1.40;;
74293;SDS011;64044;59.904;10.738;2023-09-19T08:01:04;7.53;;;1.75;;
74293;SDS011;64044;59.904;10.738;2023-09-19T08:03:34;8.73;;;1.83;;
74293;SDS011;64044;59.904;10.738;2023-09-19T08:06:05;7.55;;;1.67;;
74293;SDS011;64044;59.904;10.738;2023-09-19T08:08:32;4.88;;;1.27;;
74293;SDS011;64044;59.904;10.738;2023-09-19T08:11:02;6.23;;;1.73;;
74293;SDS011;64044;59.904;10.738;2023-09-19T08:13:39;5.68;;;1.38;;
74293;SDS011;64044;59.904;10.738;2023-09-19T08:16:09;8.40;;;1.65;;
74293;SDS011;64044;59.904;10.738;2023-09-19T08:18:35;8.70;;;1.75;;
74293;SDS011;64044;59.904;10.738;2023-09-19T08:21:02;8.25;;;1.98;;
74293;SDS011;64044;59.904;10.738;2023-09-19T08:23:28;6.93;;;1.35;;
74293;SDS011;64044;59.904;10.738;2023-09-19T08:25:57;9.05;;;1.60;;
74293;SDS011;64044;59.904;10.738;2023-09-19T08:28:23;6.78;;;1.95;;
74293;SDS011;64044;59.904;10.738;2023-09-19T08:30:49;9.60;;;2.15;;
74293;SDS011;64044;59.904;10.738;2023-09-19T08:33:16;6.38;;;1.50;;
74293;SDS011;64044;59.904;10.738;2023-09-19T08:35:42;6.03;;;2.03;;
74293;SDS011;64044;59.904;10.738;2023-09-19T08:38:11;6.57;;;1.58;;
74293;SDS011;64044;59.904;10.738;2023-09-19T08:40:38;5.10;;;1.77;;
74293;SDS011;64044;59.904;10.738;2023-09-19T08:43:08;10.60;;;1.95;;
74293;SDS011;64044;59.904;10.738;2023-09-19T08:45:34;5.47;;;1.40;;
74293;SDS011;64044;59.904;10.738;2023-09-19T08:50:27;5.72;;;1.50;;
74293;SDS011;64044;59.904;10.738;2023-09-19T08:53:00;6.90;;;1.60;;
74293;SDS011;64044;59.904;10.738;2023-09-19T08:55:27;6.13;;;1.48;;
74293;SDS011;64044;59.904;10.738;2023-09-19T08:58:00;6.22;;;1.42;;
74293;SDS011;64044;59.904;10.738;2023-09-19T09:00:28;4.93;;;1.30;;
74293;SDS011;64044;59.904;10.738;2023-09-19T09:02:55;3.83;;;1.00;;
74293;SDS011;64044;59.904;10.738;2023-09-19T09:05:23;1.85;;;0.93;;
74293;SDS011;64044;59.904;10.738;2023-09-19T09:07:51;3.47;;;0.77;;
74293;SDS011;64044;59.904;10.738;2023-09-19T09:10:20;2.55;;;0.80;;
74293;SDS011;64044;59.904;10.738;2023-09-19T09:12:50;7.03;;;0.75;;
74293;SDS011;64044;59.904;10.738;2023-09-19T09:15:19;1.47;;;0.83;;
74293;SDS011;64044;59.904;10.738;2023-09-19T09:17:48;2.60;;;0.70;;
74293;SDS011;64044;59.904;10.738;2023-09-19T09:20:16;0.82;;;0.60;;
74293;SDS011;64044;59.904;10.738;2023-09-19T09:22:55;1.35;;;0.52;;
74293;SDS011;64044;59.904;10.738;2023-09-19T09:25:46;3.45;;;0.80;;
74293;SDS011;64044;59.904;10.738;2023-09-19T09:28:25;3.45;;;0.70;;
74293;SDS011;64044;59.904;10.738;2023-09-19T09:30:52;2.13;;;0.75;;
74293;SDS011;64044;59.904;10.738;2023-09-19T09:33:18;1.02;;;0.50;;
74293;SDS011;64044;59.904;10.738;2023-09-19T09:35:47;2.95;;;0.47;;
74293;SDS011;64044;59.904;10.738;2023-09-19T09:38:17;1.17;;;0.50;;
74293;SDS011;64044;59.904;10.738;2023-09-19T09:40:50;2.42;;;0.93;;
74293;SDS011;64044;59.904;10.738;2023-09-19T09:43:39;2.70;;;0.70;;
74293;SDS011;64044;59.904;10.738;2023-09-19T09:51:43;0.98;;;0.50;;
74293;SDS011;64044;59.904;10.738;2023-09-19T09:54:32;1.00;;;0.50;;
74293;SDS011;64044;59.904;10.738;2023-09-19T09:57:02;1.13;;;0.40;;
74293;SDS011;64044;59.904;10.738;2023-09-19T10:02:18;1.38;;;0.77;;
74293;SDS011;64044;59.904;10.738;2023-09-19T10:04:50;0.73;;;0.50;;
74293;SDS011;64044;59.904;10.738;2023-09-19T10:07:32;1.58;;;0.50;;
74293;SDS011;64044;59.904;10.738;2023-09-19T10:10:03;1.83;;;0.60;;
74293;SDS011;64044;59.904;10.738;2023-09-19T10:12:42;1.15;;;0.47;;
74293;SDS011;64044;59.904;10.738;2023-09-19T10:15:11;0.80;;;0.40;;
74293;SDS011;64044;59.904;10.738;2023-09-19T10:17:40;1.13;;;0.40;;
74293;SDS011;64044;59.904;10.738;2023-09-19T10:20:17;1.40;;;0.50;;
74293;SDS011;64044;59.904;10.738;2023-09-19T10:23:04;1.73;;;0.50;;
74293;SDS011;64044;59.904;10.738;2023-09-19T10:25:39;1.33;;;0.50;;
74293;SDS011;64044;59.904;10.738;2023-09-19T10:28:11;1.00;;;0.30;;
74293;SDS011;64044;59.904;10.738;2023-09-19T10:30:40;0.43;;;0.20;;
74293;SDS011;64044;59.904;10.738;2023-09-19T10:33:13;0.70;;;0.40;;
74293;SDS011;64044;59.904;10.738;2023-09-19T10:35:45;1.75;;;0.40;;
74293;SDS011;64044;59.904;10.738;2023-09-19T10:38:13;0.10;;;0.10;;
74293;SDS011;64044;59.904;10.738;2023-09-19T10:40:40;2.22;;;0.73;;
74293;SDS011;64044;59.904;10.738;2023-09-19T10:43:12;0.50;;;0.20;;
74293;SDS011;64044;59.904;10.738;2023-09-19T10:45:42;0.60;;;0.28;;
74293;SDS011;64044;59.904;10.738;2023-09-19T10:48:10;0.40;;;0.20;;
74293;SDS011;64044;59.904;10.738;2023-09-19T10:50:41;0.65;;;0.30;;
74293;SDS011;64044;59.904;10.738;2023-09-19T10:53:29;0.40;;;0.30;;
74293;SDS011;64044;59.904;10.738;2023-09-19T10:56:27;0.90;;;0.30;;
74293;SDS011;64044;59.904;10.738;2023-09-19T11:01:49;0.03;;;0.03;;
74293;SDS011;64044;59.904;10.738;2023-09-19T11:07:02;0.20;;;0.20;;
74293;SDS011;64044;59.904;10.738;2023-09-19T11:14:59;1.23;;;0.30;;
74293;SDS011;64044;59.904;10.738;2023-09-19T11:17:30;0.43;;;0.40;;
74293;SDS011;64044;59.904;10.738;2023-09-19T11:30:37;0.52;;;0.43;;
74293;SDS011;64044;59.904;10.738;2023-09-19T11:46:34;0.68;;;0.47;;
74293;SDS011;64044;59.904;10.738;2023-09-19T11:49:18;1.25;;;0.45;;
74293;SDS011;64044;59.904;10.738;2023-09-19T11:54:16;2.63;;;0.60;;
74293;SDS011;64044;59.904;10.738;2023-09-19T11:56:53;1.63;;;0.68;;
74293;SDS011;64044;59.904;10.738;2023-09-19T11:59:20;0.50;;;0.50;;
74293;SDS011;64044;59.904;10.738;2023-09-19T12:01:53;2.15;;;0.60;;
74293;SDS011;64044;59.904;10.738;2023-09-19T12:04:35;1.08;;;0.70;;
74293;SDS011;64044;59.904;10.738;2023-09-19T12:10:04;1.15;;;0.70;;
74293;SDS011;64044;59.904;10.738;2023-09-19T12:12:33;2.92;;;0.90;;
74293;SDS011;64044;59.904;10.738;2023-09-19T12:14:59;2.10;;;0.80;;
74293;SDS011;64044;59.904;10.738;2023-09-19T12:17:41;2.45;;;1.00;;
74293;SDS011;64044;59.904;10.738;2023-09-19T12:20:09;1.33;;;0.88;;
74293;SDS011;64044;59.904;10.738;2023-09-19T12:22:45;1.88;;;0.60;;
74293;SDS011;64044;59.904;10.738;2023-09-19T12:25:14;2.88;;;0.90;;
74293;SDS011;64044;59.904;10.738;2023-09-19T12:27:48;4.70;;;0.85;;
74293;SDS011;64044;59.904;10.738;2023-09-19T12:30:18;0.85;;;0.60;;
74293;SDS011;64044;59.904;10.738;2023-09-19T12:32:48;3.22;;;0.80;;
74293;SDS011;64044;59.904;10.738;2023-09-19T12:35:27;2.78;;;0.88;;
74293;SDS011;64044;59.904;10.738;2023-09-19T12:37:55;1.52;;;0.90;;
74293;SDS011;64044;59.904;10.738;2023-09-19T12:40:22;1.67;;;0.85;;
74293;SDS011;64044;59.904;10.738;2023-09-19T12:45:20;1.25;;;0.70;;
74293;SDS011;64044;59.904;10.738;2023-09-19T12:51:07;1.10;;;0.80;;
74293;SDS011;64044;59.904;10.738;2023-09-19T12:53:40;3.75;;;1.05;;
74293;SDS011;64044;59.904;10.738;2023-09-19T12:56:11;2.03;;;0.70;;
74293;SDS011;64044;59.904;10.738;2023-09-19T13:01:26;1.15;;;0.60;;
74293;SDS011;64044;59.904;10.738;2023-09-19T13:06:54;1.92;;;1.00;;
74293;SDS011;64044;59.904;10.738;2023-09-19T13:09:26;0.90;;;0.73;;
74293;SDS011;64044;59.904;10.738;2023-09-19T13:14:25;1.98;;;0.90;;
74293;SDS011;64044;59.904;10.738;2023-09-19T13:19:44;3.10;;;0.88;;
74293;SDS011;64044;59.904;10.738;2023-09-19T13:25:17;2.00;;;1.10;;
74293;SDS011;64044;59.904;10.738;2023-09-19T13:27:44;1.88;;;1.10;;
74293;SDS011;64044;59.904;10.738;2023-09-19T13:30:17;1.90;;;1.00;;
74293;SDS011;64044;59.904;10.738;2023-09-19T13:32:43;3.50;;;1.30;;
74293;SDS011;64044;59.904;10.738;2023-09-19T13:35:10;2.88;;;1.20;;
74293;SDS011;64044;59.904;10.738;2023-09-19T13:37:40;4.28;;;1.33;;
74293;SDS011;64044;59.904;10.738;2023-09-19T13:40:08;2.03;;;1.23;;
74293;SDS011;64044;59.904;10.738;2023-09-19T13:42:35;3.17;;;1.20;;
74293;SDS011;64044;59.904;10.738;2023-09-19T13:45:02;3.10;;;1.23;;
74293;SDS011;64044;59.904;10.738;2023-09-19T13:47:29;3.13;;;1.35;;
74293;SDS011;64044;59.904;10.738;2023-09-19T13:49:55;4.32;;;1.20;;
74293;SDS011;64044;59.904;10.738;2023-09-19T13:52:22;4.80;;;1.63;;
74293;SDS011;64044;59.904;10.738;2023-09-19T13:54:48;2.63;;;1.10;;
74293;SDS011;64044;59.904;10.738;2023-09-19T13:57:18;4.63;;;1.30;;
74293;SDS011;64044;59.904;10.738;2023-09-19T13:59:43;2.47;;;1.13;;
74293;SDS011;64044;59.904;10.738;2023-09-19T14:02:09;1.98;;;1.10;;
74293;SDS011;64044;59.904;10.738;2023-09-19T14:04:35;2.33;;;0.98;;
74293;SDS011;64044;59.904;10.738;2023-09-19T14:07:01;4.50;;;1.60;;
74293;SDS011;64044;59.904;10.738;2023-09-19T14:09:27;2.03;;;0.90;;
74293;SDS011;64044;59.904;10.738;2023-09-19T14:11:53;1.55;;;1.00;;
74293;SDS011;64044;59.904;10.738;2023-09-19T14:14:18;3.75;;;1.38;;
74293;SDS011;64044;59.904;10.738;2023-09-19T14:16:47;2.13;;;0.82;;
74293;SDS011;64044;59.904;10.738;2023-09-19T14:19:13;2.25;;;0.77;;
74293;SDS011;64044;59.904;10.738;2023-09-19T14:21:41;8.70;;;1.55;;
74293;SDS011;64044;59.904;10.738;2023-09-19T14:24:08;4.45;;;0.80;;
74293;SDS011;64044;59.904;10.738;2023-09-19T14:26:37;2.00;;;0.60;;
74293;SDS011;64044;59.904;10.738;2023-09-19T14:29:03;5.60;;;2.17;;
74293;SDS011;64044;59.904;10.738;2023-09-19T14:31:28;2.08;;;0.80;;
74293;SDS011;64044;59.904;10.738;2023-09-19T14:33:55;1.20;;;0.57;;
74293;SDS011;64044;59.904;10.738;2023-09-19T14:36:27;1.50;;;0.70;;
74293;SDS011;64044;59.904;10.738;2023-09-19T14:38:55;2.33;;;1.33;;
74293;SDS011;64044;59.904;10.738;2023-09-19T14:41:21;2.58;;;0.82;;
74293;SDS011;64044;59.904;10.738;2023-09-19T14:43:49;2.35;;;1.15;;
74293;SDS011;64044;59.904;10.738;2023-09-19T14:46:15;1.50;;;0.70;;
74293;SDS011;64044;59.904;10.738;2023-09-19T14:48:41;0.90;;;0.43;;
74293;SDS011;64044;59.904;10.738;2023-09-19T14:51:08;2.15;;;0.75;;
74293;SDS011;64044;59.904;10.738;2023-09-19T14:53:34;0.73;;;0.52;;
74293;SDS011;64044;59.904;10.738;2023-09-19T14:56:01;2.13;;;0.90;;
74293;SDS011;64044;59.904;10.738;2023-09-19T14:58:31;1.00;;;0.75;;
74293;SDS011;64044;59.904;10.738;2023-09-19T15:01:03;0.80;;;0.60;;
74293;SDS011;64044;59.904;10.738;2023-09-19T15:03:33;2.65;;;1.05;;
74293;SDS011;64044;59.904;10.738;2023-09-19T15:06:04;1.75;;;0.90;;
74293;SDS011;64044;59.904;10.738;2023-09-19T15:08:32;2.47;;;0.65;;
74293;SDS011;64044;59.904;10.738;2023-09-19T15:11:00;2.17;;;0.90;;
74293;SDS011;64044;59.904;10.738;2023-09-19T15:13:30;1.42;;;0.80;;
74293;SDS011;64044;59.904;10.738;2023-09-19T15:16:03;0.88;;;0.88;;
74293;SDS011;64044;59.904;10.738;2023-09-19T15:18:33;1.30;;;0.90;;
74293;SDS011;64044;59.904;10.738;2023-09-19T15:21:02;0.52;;;0.50;;
74293;SDS011;64044;59.904;10.738;2023-09-19T15:23:32;2.40;;;0.63;;
74293;SDS011;64044;59.904;10.738;2023-09-19T15:26:05;0.77;;;0.50;;
74293;SDS011;64044;59.904;10.738;2023-09-19T15:28:33;0.55;;;0.50;;
74293;SDS011;64044;59.904;10.738;2023-09-19T15:31:00;0.63;;;0.43;;
74293;SDS011;64044;59.904;10.738;2023-09-19T15:33:26;0.38;;;0.38;;
74293;SDS011;64044;59.904;10.738;2023-09-19T15:36:00;1.25;;;0.45;;
74293;SDS011;64044;59.904;10.738;2023-09-19T15:38:27;0.55;;;0.40;;
74293;SDS011;64044;59.904;10.738;2023-09-19T15:40:53;1.85;;;0.50;;
74293;SDS011;64044;59.904;10.738;2023-09-19T15:43:19;0.57;;;0.47;;
74293;SDS011;64044;59.904;10.738;2023-09-19T15:45:46;0.82;;;0.57;;
74293;SDS011;64044;59.904;10.738;2023-09-19T15:48:13;1.00;;;0.60;;
74293;SDS011;64044;59.904;10.738;2023-09-19T15:50:39;2.90;;;0.63;;
74293;SDS011;64044;59.904;10.738;2023-09-19T15:53:07;1.63;;;0.70;;
74293;SDS011;64044;59.904;10.738;2023-09-19T15:55:39;1.17;;;0.73;;
74293;SDS011;64044;59.904;10.738;2023-09-19T15:58:05;1.58;;;0.70;;
74293;SDS011;64044;59.904;10.738;2023-09-19T16:00:31;2.22;;;0.57;;
74293;SDS011;64044;59.904;10.738;2023-09-19T16:03:01;1.80;;;0.60;;
74293;SDS011;64044;59.904;10.738;2023-09-19T16:05:28;0.95;;;0.50;;
74293;SDS011;64044;59.904;10.738;2023-09-19T16:08:03;1.10;;;0.80;;
74293;SDS011;64044;59.904;10.738;2023-09-19T16:10:30;1.17;;;0.57;;
74293;SDS011;64044;59.904;10.738;2023-09-19T16:12:59;2.80;;;0.80;;